createdAt,value
2023-03-12T00:00:10.669Z,1.24
2023-03-12T00:02:38.107Z,1.44
2023-03-12T00:05:05.990Z,1.36
2023-03-12T00:07:33.264Z,1.33
2023-03-12T00:10:00.449Z,1.25
2023-03-12T00:12:27.851Z,1.30
2023-03-12T00:14:55.035Z,1.25
2023-03-12T00:17:22.281Z,1.34
2023-03-12T00:19:53.987Z,1.58
2023-03-12T00:22:25.767Z,1.29
2023-03-12T00:24:58.141Z,1.31
2023-03-12T00:27:26.391Z,1.38
2023-03-12T00:29:53.922Z,1.20
2023-03-12T00:32:21.470Z,1.27
2023-03-12T00:34:55.133Z,1.53
2023-03-12T00:37:23.022Z,1.76
2023-03-12T00:39:50.657Z,1.42
2023-03-12T00:42:18.364Z,1.33
2023-03-12T00:44:46.088Z,1.16
2023-03-12T00:47:14.260Z,1.31
2023-03-12T00:49:41.781Z,1.24
2023-03-12T00:52:09.310Z,1.33
2023-03-12T00:54:37.000Z,1.50
2023-03-12T00:57:04.615Z,1.15
2023-03-12T00:59:32.841Z,1.40
2023-03-12T01:02:00.048Z,1.30
2023-03-12T01:04:27.509Z,1.36
2023-03-12T01:06:55.890Z,1.31
2023-03-12T01:09:23.400Z,1.26
2023-03-12T01:11:52.056Z,1.01
2023-03-12T01:14:19.358Z,1.24
2023-03-12T01:16:47.545Z,1.20
2023-03-12T01:19:14.902Z,1.10
2023-03-12T01:21:42.199Z,0.67
2023-03-12T01:24:10.019Z,0.42
2023-03-12T01:26:37.347Z,0.35
2023-03-12T01:29:04.738Z,0.26
2023-03-12T01:31:32.218Z,0.16
2023-03-12T01:33:59.792Z,-0.16
2023-03-12T01:36:29.818Z,-0.40
2023-03-12T01:38:59.753Z,-0.41
2023-03-12T01:41:32.116Z,-0.56
2023-03-12T01:44:03.686Z,-0.69
2023-03-12T01:46:38.405Z,-0.90
2023-03-12T01:49:13.418Z,-0.70
2023-03-12T01:52:03.539Z,-0.87
2023-03-12T01:54:44.989Z,-0.96
2023-03-12T01:57:17.282Z,-1.10
2023-03-12T01:59:56.085Z,-1.43
2023-03-12T02:02:27.233Z,-1.27
2023-03-12T02:05:08.704Z,-1.44
2023-03-12T02:07:36.154Z,-1.20
2023-03-12T02:10:05.604Z,-1.37
2023-03-12T02:12:33.055Z,-1.29
2023-03-12T02:15:00.356Z,-1.37
2023-03-12T02:17:27.776Z,-1.44
2023-03-12T02:20:17.518Z,-1.28
2023-03-12T02:22:52.867Z,-1.46
2023-03-12T02:25:44.173Z,-1.57
2023-03-12T02:28:15.950Z,-1.68
2023-03-12T02:30:49.899Z,-1.77
2023-03-12T02:33:17.511Z,-1.78
2023-03-12T02:35:47.671Z,-1.76
2023-03-12T02:38:34.834Z,-1.77
2023-03-12T02:41:19.279Z,-1.89
2023-03-12T02:43:58.494Z,-1.96
2023-03-12T02:46:26.859Z,-2.09
2023-03-12T02:48:55.310Z,-2.10
2023-03-12T02:51:22.598Z,-2.10
2023-03-12T02:53:54.793Z,-2.12
2023-03-12T02:56:27.898Z,-2.13
2023-03-12T02:58:55.170Z,-2.12
2023-03-12T03:01:24.223Z,-1.97
2023-03-12T03:03:51.651Z,-1.93
2023-03-12T03:06:18.910Z,-1.88
2023-03-12T03:08:46.733Z,-1.92
2023-03-12T03:11:14.523Z,-2.05
2023-03-12T03:13:41.702Z,-2.16
2023-03-12T03:16:09.845Z,-2.29
2023-03-12T03:18:37.172Z,-2.40
2023-03-12T03:21:07.834Z,-2.38
2023-03-12T03:23:37.228Z,-2.38
2023-03-12T03:26:05.414Z,-2.34
2023-03-12T03:28:32.662Z,-2.33
2023-03-12T03:31:02.101Z,-2.07
2023-03-12T03:33:36.114Z,-2.04
2023-03-12T03:36:06.167Z,-2.06
2023-03-12T03:38:37.045Z,-2.18
2023-03-12T03:41:05.022Z,-2.28
2023-03-12T03:43:35.197Z,-2.34
2023-03-12T03:46:05.876Z,-2.30
2023-03-12T03:48:36.939Z,-2.33
2023-03-12T03:51:07.556Z,-2.36
2023-03-12T03:53:36.609Z,-2.44
2023-03-12T03:56:14.350Z,-2.48
2023-03-12T03:58:46.476Z,-2.58
2023-03-12T04:01:16.080Z,-2.59
2023-03-12T04:03:45.060Z,-2.63
2023-03-12T04:06:13.191Z,-2.62
2023-03-12T04:08:41.048Z,-2.56
2023-03-12T04:11:18.259Z,-3.03
2023-03-12T04:13:46.812Z,-2.90
2023-03-12T04:16:16.901Z,-2.77
2023-03-12T04:18:45.393Z,-2.44
2023-03-12T04:21:14.609Z,-2.23
2023-03-12T04:23:43.030Z,-1.99
2023-03-12T04:26:12.287Z,-1.81
2023-03-12T04:28:40.014Z,-1.80
2023-03-12T04:31:10.478Z,-1.90
2023-03-12T04:33:46.253Z,-2.18
2023-03-12T04:36:16.234Z,-2.28
2023-03-12T04:38:45.740Z,-2.13
2023-03-12T04:41:17.293Z,-2.04
2023-03-12T04:43:49.370Z,-1.93
2023-03-12T04:46:18.658Z,-1.98
2023-03-12T04:48:45.890Z,-1.90
2023-03-12T04:51:14.373Z,-1.86
2023-03-12T04:53:41.941Z,-2.10
2023-03-12T04:56:10.940Z,-2.03
2023-03-12T04:58:39.337Z,-2.07
2023-03-12T05:01:07.135Z,-1.85
2023-03-12T05:03:35.212Z,-1.92
2023-03-12T05:06:02.632Z,-2.10
2023-03-12T05:08:30.262Z,-2.07
2023-03-12T05:10:57.604Z,-2.18
2023-03-12T05:13:26.410Z,-2.13
2023-03-12T05:15:56.921Z,-2.04
2023-03-12T05:18:26.553Z,-1.76
2023-03-12T05:21:16.064Z,-1.57
2023-03-12T05:23:44.555Z,-1.56
2023-03-12T05:26:27.458Z,-1.61
2023-03-12T05:29:02.341Z,-1.56
2023-03-12T05:31:33.192Z,-1.47
2023-03-12T05:34:03.062Z,-1.27
2023-03-12T05:36:31.472Z,-1.17
2023-03-12T05:39:00.025Z,-0.97
2023-03-12T05:41:30.783Z,-0.73
2023-03-12T05:44:04.305Z,-0.74
2023-03-12T05:46:31.926Z,-0.53
2023-03-12T05:49:00.371Z,-0.20
2023-03-12T05:51:28.061Z,0.37
2023-03-12T05:53:55.334Z,0.73
2023-03-12T05:56:22.714Z,1.21
2023-03-12T05:58:50.141Z,1.64
2023-03-12T06:01:28.680Z,1.50
2023-03-12T06:03:58.217Z,1.37
2023-03-12T06:06:26.451Z,1.68
2023-03-12T06:08:54.555Z,2.36
2023-03-12T06:11:21.864Z,2.86
2023-03-12T06:13:49.084Z,4.15
2023-03-12T06:16:23.208Z,5.12
2023-03-12T06:18:54.879Z,6.12
2023-03-12T06:21:27.114Z,6.42
2023-03-12T06:23:55.012Z,6.76
2023-03-12T06:26:28.386Z,7.96
2023-03-12T06:28:55.825Z,8.37
2023-03-12T06:31:24.394Z,8.80
2023-03-12T06:33:53.807Z,9.22
2023-03-12T06:36:21.504Z,10.20
2023-03-12T06:38:48.906Z,10.29
2023-03-12T06:41:19.277Z,10.11
2023-03-12T06:43:47.595Z,10.27
2023-03-12T06:46:18.589Z,10.24
2023-03-12T06:48:46.651Z,9.56
2023-03-12T06:51:17.257Z,10.14
2023-03-12T06:53:45.983Z,8.66
2023-03-12T06:56:13.983Z,8.42
2023-03-12T06:58:42.035Z,9.01
2023-03-12T07:01:09.796Z,9.77
2023-03-12T07:03:37.486Z,10.39
2023-03-12T07:06:05.711Z,9.80
2023-03-12T07:08:33.267Z,10.38
2023-03-12T07:11:01.960Z,9.26
2023-03-12T07:13:30.429Z,8.23
2023-03-12T07:15:58.163Z,8.95
2023-03-12T07:18:25.682Z,8.36
2023-03-12T07:20:54.252Z,8.19
2023-03-12T07:23:22.322Z,8.41
2023-03-12T07:25:50.477Z,8.21
2023-03-12T07:28:19.241Z,8.25
2023-03-12T07:30:50.688Z,8.19
2023-03-12T07:33:21.846Z,7.93
2023-03-12T07:35:51.659Z,9.57
2023-03-12T07:38:19.516Z,11.62
2023-03-12T07:40:55.961Z,12.86
2023-03-12T07:43:25.220Z,8.89
2023-03-12T07:45:55.160Z,8.79
2023-03-12T07:48:22.470Z,12.09
2023-03-12T07:50:49.756Z,10.89
2023-03-12T07:53:17.564Z,11.00
2023-03-12T07:55:46.883Z,12.29
2023-03-12T07:58:16.613Z,11.13
2023-03-12T08:00:45.044Z,11.87
2023-03-12T08:03:13.793Z,11.70
2023-03-12T08:05:41.705Z,9.88
2023-03-12T08:08:09.803Z,11.02
2023-03-12T08:10:37.595Z,12.61
2023-03-12T08:13:05.003Z,12.80
2023-03-12T08:15:33.562Z,12.19
2023-03-12T08:18:01.587Z,13.82
2023-03-12T08:20:29.052Z,13.40
2023-03-12T08:22:56.264Z,13.09
2023-03-12T08:25:24.911Z,12.81
2023-03-12T08:27:52.453Z,13.33
2023-03-12T08:30:19.822Z,13.23
2023-03-12T08:32:47.286Z,14.65
2023-03-12T08:35:14.578Z,13.08
2023-03-12T08:37:41.960Z,14.66
2023-03-12T08:40:15.880Z,15.50
2023-03-12T08:42:45.013Z,16.03
2023-03-12T08:45:13.599Z,15.13
2023-03-12T08:47:42.900Z,15.54
2023-03-12T08:50:13.028Z,15.98
2023-03-12T08:52:40.434Z,15.86
2023-03-12T08:55:08.363Z,17.80
2023-03-12T08:57:35.808Z,17.38
2023-03-12T09:00:06.074Z,16.97
2023-03-12T09:02:33.662Z,18.78
2023-03-12T09:05:00.879Z,17.68
2023-03-12T09:07:28.404Z,17.47
2023-03-12T09:09:56.017Z,16.37
2023-03-12T09:12:24.274Z,15.15
2023-03-12T09:15:03.863Z,16.46
2023-03-12T09:17:32.372Z,15.97
2023-03-12T09:20:00.260Z,16.72
2023-03-12T09:22:30.665Z,17.98
2023-03-12T09:24:58.011Z,18.71
2023-03-12T09:27:25.340Z,18.26
2023-03-12T09:30:00.723Z,18.24
2023-03-12T09:32:29.583Z,18.59
2023-03-12T09:34:57.134Z,19.61
2023-03-12T09:37:24.679Z,19.64
2023-03-12T09:39:53.211Z,18.53
2023-03-12T09:42:47.579Z,18.41
2023-03-12T09:45:26.600Z,20.65
2023-03-12T09:47:58.587Z,21.64
2023-03-12T09:50:40.734Z,22.75
2023-03-12T09:53:21.332Z,20.17
2023-03-12T09:55:52.636Z,18.53
2023-03-12T09:58:33.684Z,21.68
2023-03-12T10:01:24.080Z,23.12
2023-03-12T10:04:25.268Z,23.13
2023-03-12T10:06:56.155Z,24.08
2023-03-12T10:09:32.671Z,22.25
2023-03-12T10:12:35.718Z,20.14
2023-03-12T10:15:47.472Z,20.01
2023-03-12T10:18:21.293Z,19.96
2023-03-12T10:21:12.149Z,21.11
2023-03-12T10:23:47.518Z,22.14
2023-03-12T10:26:44.101Z,18.98
2023-03-12T10:29:19.513Z,21.79
2023-03-12T10:31:58.725Z,22.44
2023-03-12T10:34:49.152Z,22.68
2023-03-12T10:37:26.898Z,22.08
2023-03-12T10:40:01.011Z,21.49
2023-03-12T10:42:30.641Z,20.94
2023-03-12T10:45:11.055Z,20.67
2023-03-12T10:47:39.128Z,22.39
2023-03-12T10:50:20.325Z,21.52
2023-03-12T10:52:50.737Z,21.16
2023-03-12T10:55:24.708Z,18.88
2023-03-12T10:57:53.175Z,20.68
2023-03-12T11:00:27.271Z,20.00
2023-03-12T11:03:05.514Z,19.40
2023-03-12T11:05:37.246Z,20.67
2023-03-12T11:08:20.541Z,20.19
2023-03-12T11:10:48.318Z,20.06
2023-03-12T11:13:30.291Z,19.62
2023-03-12T11:16:17.655Z,18.85
2023-03-12T11:19:01.386Z,19.89
2023-03-12T11:21:31.657Z,20.02
2023-03-12T11:23:58.739Z,19.44
2023-03-12T11:26:35.171Z,19.02
2023-03-12T11:29:40.107Z,20.32
2023-03-12T11:32:34.645Z,20.92
2023-03-12T11:35:02.105Z,21.31
2023-03-12T11:37:59.923Z,19.00
2023-03-12T11:40:59.940Z,17.22
2023-03-12T11:43:58.592Z,16.39
2023-03-12T11:46:28.476Z,16.81
2023-03-12T11:49:09.026Z,17.35
2023-03-12T11:51:51.246Z,18.40
2023-03-12T11:54:58.054Z,18.54
2023-03-12T11:57:49.898Z,17.77
2023-03-12T12:00:21.173Z,15.24
2023-03-12T12:03:17.817Z,14.68
2023-03-12T12:06:37.017Z,14.91
2023-03-12T12:09:40.609Z,14.83
2023-03-12T12:12:31.467Z,14.36
2023-03-12T12:15:39.064Z,14.62
2023-03-12T12:18:42.851Z,15.76
2023-03-12T12:21:51.462Z,14.25
2023-03-12T12:24:34.702Z,14.48
2023-03-12T12:27:18.922Z,13.88
2023-03-12T12:30:04.679Z,14.93
2023-03-12T12:32:55.615Z,14.70
2023-03-12T12:35:26.487Z,14.42
2023-03-12T12:38:38.104Z,13.77
2023-03-12T12:41:40.672Z,13.57
2023-03-12T12:44:18.092Z,13.89
2023-03-12T12:47:03.842Z,14.36
2023-03-12T12:49:49.016Z,13.22
2023-03-12T12:52:20.243Z,12.61
2023-03-12T12:55:06.769Z,11.46
2023-03-12T12:57:48.485Z,11.51
2023-03-12T13:00:42.288Z,10.80
2023-03-12T13:03:25.034Z,11.62
2023-03-12T13:06:03.611Z,10.70
2023-03-12T13:08:34.408Z,11.67
2023-03-12T13:11:20.323Z,11.20
2023-03-12T13:14:03.651Z,11.35
2023-03-12T13:16:39.358Z,10.50
2023-03-12T13:19:15.341Z,11.17
2023-03-12T13:22:15.559Z,10.48
2023-03-12T13:25:41.806Z,10.01
2023-03-12T13:29:11.421Z,9.44
2023-03-12T13:31:41.938Z,9.02
2023-03-12T13:34:18.136Z,9.57
2023-03-12T13:36:52.477Z,8.97
2023-03-12T13:39:35.292Z,8.67
2023-03-12T13:42:34.790Z,8.80
2023-03-12T13:45:25.203Z,8.67
2023-03-12T13:47:58.403Z,9.31
2023-03-12T13:50:26.796Z,8.47
2023-03-12T13:53:14.997Z,7.92
2023-03-12T13:55:43.855Z,7.75
2023-03-12T13:58:23.616Z,8.36
2023-03-12T14:01:04.736Z,8.00
2023-03-12T14:03:40.688Z,7.94
2023-03-12T14:06:17.834Z,7.99
2023-03-12T14:09:08.366Z,7.87
2023-03-12T14:12:14.370Z,7.59
2023-03-12T14:15:03.134Z,7.70
2023-03-12T14:17:33.373Z,7.29
2023-03-12T14:20:07.514Z,7.09
2023-03-12T14:22:38.296Z,7.51
2023-03-12T14:25:29.090Z,7.39
2023-03-12T14:27:56.323Z,7.15
2023-03-12T14:30:39.589Z,6.97
2023-03-12T14:33:07.743Z,7.46
2023-03-12T14:35:40.608Z,7.48
2023-03-12T14:38:12.334Z,7.41
2023-03-12T14:40:46.089Z,7.02
2023-03-12T14:43:26.967Z,6.93
2023-03-12T14:46:03.778Z,6.77
2023-03-12T14:48:33.649Z,6.70
2023-03-12T14:51:02.578Z,6.83
2023-03-12T14:53:33.175Z,7.02
2023-03-12T14:56:07.738Z,7.02
2023-03-12T14:58:41.828Z,6.89
2023-03-12T15:01:15.305Z,6.91
2023-03-12T15:03:46.553Z,6.61
2023-03-12T15:06:35.055Z,6.41
2023-03-12T15:09:04.652Z,6.48
2023-03-12T15:11:34.068Z,6.54
2023-03-12T15:14:08.306Z,6.75
2023-03-12T15:16:35.979Z,6.46
2023-03-12T15:19:04.245Z,6.21
2023-03-12T15:21:35.732Z,6.51
2023-03-12T15:24:03.788Z,6.32
2023-03-12T15:26:34.579Z,6.62
2023-03-12T15:29:26.813Z,6.32
2023-03-12T15:31:59.021Z,6.14
2023-03-12T15:34:28.400Z,6.40
2023-03-12T15:36:55.638Z,6.63
2023-03-12T15:39:27.314Z,6.62
2023-03-12T15:41:55.233Z,6.80
2023-03-12T15:44:24.768Z,6.95
2023-03-12T15:47:04.982Z,6.45
2023-03-12T15:49:36.220Z,6.49
2023-03-12T15:52:26.667Z,6.83
2023-03-12T15:55:05.895Z,6.73
2023-03-12T15:57:54.455Z,6.38
2023-03-12T16:00:41.289Z,6.73
2023-03-12T16:03:19.586Z,6.46
2023-03-12T16:05:47.674Z,6.24
2023-03-12T16:08:23.455Z,6.51
2023-03-12T16:10:50.859Z,6.70
2023-03-12T16:13:21.328Z,6.33
2023-03-12T16:15:49.058Z,6.53
2023-03-12T16:18:19.093Z,6.49
2023-03-12T16:20:47.973Z,6.52
2023-03-12T16:23:15.917Z,6.42
2023-03-12T16:25:45.490Z,6.40
2023-03-12T16:28:15.616Z,6.23
2023-03-12T16:30:42.942Z,6.01
2023-03-12T16:33:14.267Z,6.08
2023-03-12T16:35:41.563Z,6.00
2023-03-12T16:38:08.870Z,6.28
2023-03-12T16:40:38.361Z,6.09
2023-03-12T16:43:07.873Z,6.15
2023-03-12T16:45:36.424Z,6.23
2023-03-12T16:48:06.868Z,6.10
2023-03-12T16:50:34.010Z,5.99
2023-03-12T16:53:02.695Z,5.89
2023-03-12T16:55:30.615Z,5.58
2023-03-12T16:58:02.256Z,5.49
2023-03-12T17:00:32.801Z,5.79
2023-03-12T17:03:00.665Z,5.67
2023-03-12T17:05:30.045Z,5.52
2023-03-12T17:07:57.373Z,5.61
2023-03-12T17:10:25.744Z,5.65
2023-03-12T17:12:53.401Z,5.48
2023-03-12T17:15:23.536Z,5.62
2023-03-12T17:17:50.762Z,5.71
2023-03-12T17:20:20.857Z,5.56
2023-03-12T17:22:48.414Z,5.55
2023-03-12T17:25:26.064Z,5.54
2023-03-12T17:27:53.954Z,5.38
2023-03-12T17:30:22.133Z,5.21
2023-03-12T17:32:50.826Z,4.95
2023-03-12T17:35:19.276Z,5.16
2023-03-12T17:37:48.514Z,5.21
2023-03-12T17:40:16.498Z,5.26
2023-03-12T17:42:43.587Z,5.25
2023-03-12T17:45:11.229Z,5.04
2023-03-12T17:47:38.388Z,5.01
2023-03-12T17:50:06.928Z,5.10
2023-03-12T17:52:34.265Z,5.02
2023-03-12T17:55:01.751Z,4.74
2023-03-12T17:57:29.920Z,4.95
2023-03-12T17:59:57.037Z,4.94
2023-03-12T18:02:24.697Z,4.83
2023-03-12T18:04:51.929Z,4.68
2023-03-12T18:07:19.066Z,4.41
2023-03-12T18:09:46.296Z,4.41
2023-03-12T18:12:13.486Z,4.64
2023-03-12T18:14:40.673Z,4.74
2023-03-12T18:17:08.013Z,4.64
2023-03-12T18:19:35.679Z,4.74
2023-03-12T18:22:02.998Z,4.72
2023-03-12T18:24:30.333Z,4.83
2023-03-12T18:26:59.323Z,4.80
2023-03-12T18:29:26.894Z,4.77
2023-03-12T18:31:54.060Z,4.83
2023-03-12T18:34:23.462Z,4.86
2023-03-12T18:36:50.753Z,4.85
2023-03-12T18:39:17.870Z,5.26
2023-03-12T18:41:45.027Z,5.16
2023-03-12T18:44:13.204Z,5.21
2023-03-12T18:46:40.485Z,5.32
2023-03-12T18:49:09.276Z,5.24
2023-03-12T18:51:36.418Z,5.20
2023-03-12T18:54:03.818Z,5.33
2023-03-12T18:56:30.870Z,5.42
2023-03-12T18:58:58.155Z,5.69
2023-03-12T19:01:26.261Z,5.58
2023-03-12T19:03:53.599Z,5.63
2023-03-12T19:06:20.653Z,5.55
2023-03-12T19:08:47.996Z,5.58
2023-03-12T19:11:15.873Z,5.81
2023-03-12T19:13:43.609Z,5.69
2023-03-12T19:16:12.768Z,5.70
2023-03-12T19:18:40.138Z,5.60
2023-03-12T19:21:08.194Z,5.78
2023-03-12T19:23:35.888Z,5.86
2023-03-12T19:26:04.257Z,5.71
2023-03-12T19:28:32.158Z,5.68
2023-03-12T19:31:04.688Z,5.90
2023-03-12T19:33:33.166Z,5.69
2023-03-12T19:36:00.571Z,5.76
2023-03-12T19:38:28.117Z,5.79
2023-03-12T19:40:56.861Z,5.75
2023-03-12T19:43:24.613Z,5.85
2023-03-12T19:45:53.359Z,5.83
2023-03-12T19:48:20.623Z,5.81
2023-03-12T19:50:47.921Z,6.02
2023-03-12T19:53:15.122Z,6.07
2023-03-12T19:55:42.253Z,5.88
2023-03-12T19:58:09.314Z,6.10
2023-03-12T20:00:36.626Z,6.05
2023-03-12T20:03:05.086Z,5.84
2023-03-12T20:05:32.619Z,5.92
2023-03-12T20:07:59.739Z,5.92
2023-03-12T20:10:29.047Z,6.18
2023-03-12T20:12:56.371Z,6.13
2023-03-12T20:15:23.968Z,6.43
2023-03-12T20:17:54.705Z,6.27
2023-03-12T20:20:21.842Z,6.29
2023-03-12T20:22:49.180Z,6.38
2023-03-12T20:25:17.303Z,6.27
2023-03-12T20:27:44.897Z,6.24
2023-03-12T20:30:12.852Z,6.13
2023-03-12T20:32:40.176Z,6.01
2023-03-12T20:35:07.483Z,6.04
2023-03-12T20:37:34.721Z,6.13
2023-03-12T20:40:01.905Z,6.13
2023-03-12T20:42:29.004Z,6.34
2023-03-12T20:44:56.118Z,6.14
2023-03-12T20:47:23.359Z,6.40
2023-03-12T20:49:50.586Z,6.36
2023-03-12T20:52:17.661Z,6.43
2023-03-12T20:54:44.759Z,6.29
2023-03-12T20:57:11.823Z,6.50
2023-03-12T20:59:39.011Z,6.48
2023-03-12T21:02:06.349Z,6.41
2023-03-12T21:04:33.694Z,6.34
2023-03-12T21:07:00.737Z,6.42
2023-03-12T21:09:27.973Z,6.41
2023-03-12T21:11:55.183Z,6.38
2023-03-12T21:14:22.469Z,6.53
2023-03-12T21:16:49.905Z,6.34
2023-03-12T21:19:17.053Z,6.52
2023-03-12T21:21:44.184Z,6.57
2023-03-12T21:24:11.587Z,6.34
2023-03-12T21:26:38.807Z,6.29
2023-03-12T21:29:05.964Z,6.45
2023-03-12T21:31:33.111Z,6.65
2023-03-12T21:34:00.188Z,6.74
2023-03-12T21:36:27.497Z,6.64
2023-03-12T21:38:54.664Z,6.56
2023-03-12T21:41:21.953Z,6.65
2023-03-12T21:43:49.164Z,6.62
2023-03-12T21:46:19.372Z,6.72
2023-03-12T21:48:47.849Z,6.84
2023-03-12T21:51:16.579Z,7.03
2023-03-12T21:53:43.980Z,6.81
2023-03-12T21:56:11.313Z,6.95
2023-03-12T21:58:38.431Z,6.63
2023-03-12T22:01:13.732Z,6.76
2023-03-12T22:03:42.291Z,6.83
2023-03-12T22:06:10.246Z,6.78
2023-03-12T22:08:38.133Z,6.88
2023-03-12T22:11:06.365Z,7.00
2023-03-12T22:13:33.754Z,6.81
2023-03-12T22:16:03.351Z,7.09
2023-03-12T22:18:30.504Z,6.80
2023-03-12T22:21:01.819Z,6.78
2023-03-12T22:23:30.055Z,6.99
2023-03-12T22:26:04.697Z,7.30
2023-03-12T22:28:32.095Z,7.17
2023-03-12T22:31:04.145Z,7.29
2023-03-12T22:33:31.414Z,7.21
2023-03-12T22:35:58.706Z,7.10
2023-03-12T22:38:25.945Z,7.20
2023-03-12T22:40:55.510Z,7.07
2023-03-12T22:43:25.357Z,7.15
2023-03-12T22:45:55.482Z,7.14
2023-03-12T22:48:22.538Z,7.34
2023-03-12T22:50:55.948Z,7.23
2023-03-12T22:53:23.182Z,7.26
2023-03-12T22:56:00.574Z,6.95
2023-03-12T22:58:28.283Z,7.13
2023-03-12T23:01:16.157Z,7.28
2023-03-12T23:03:44.863Z,7.34
2023-03-12T23:06:17.393Z,7.08
2023-03-12T23:08:47.063Z,7.21
2023-03-12T23:11:15.499Z,7.41
2023-03-12T23:13:44.661Z,7.33
2023-03-12T23:16:14.656Z,7.47
2023-03-12T23:18:44.914Z,7.50
2023-03-12T23:21:15.216Z,7.45
2023-03-12T23:23:43.593Z,7.14
2023-03-12T23:26:16.813Z,7.27
2023-03-12T23:28:44.118Z,7.39
2023-03-12T23:31:11.231Z,7.52
2023-03-12T23:33:38.508Z,7.34
2023-03-12T23:36:08.884Z,7.28
2023-03-12T23:38:37.609Z,7.38
2023-03-12T23:41:06.433Z,7.19
2023-03-12T23:43:33.749Z,7.27
2023-03-12T23:46:02.786Z,7.21
2023-03-12T23:48:31.754Z,7.24
2023-03-12T23:51:12.383Z,7.37
2023-03-12T23:53:40.703Z,7.55
2023-03-12T23:56:11.208Z,7.35
2023-03-12T23:58:38.986Z,7.37
